sensor_id;sensor_type;location;lat;lon;timestamp;pressure;altitude;pressure_sealevel;temperature
11321;BMP180;5715;48.234;14.320;2022-09-16T00:01:28;97940.00;;;23.00
11321;BMP180;5715;48.234;14.320;2022-09-16T00:04:16;97945.00;;;22.90
11321;BMP180;5715;48.234;14.320;2022-09-16T00:07:04;97946.00;;;22.90
11321;BMP180;5715;48.234;14.320;2022-09-16T00:09:51;97950.00;;;22.80
11321;BMP180;5715;48.234;14.320;2022-09-16T00:12:40;97953.00;;;22.80
11321;BMP180;5715;48.234;14.320;2022-09-16T00:15:28;97945.00;;;23.00
11321;BMP180;5715;48.234;14.320;2022-09-16T00:18:16;97948.00;;;22.80
11321;BMP180;5715;48.234;14.320;2022-09-16T00:21:08;97948.00;;;23.20
11321;BMP180;5715;48.234;14.320;2022-09-16T00:23:56;97952.00;;;23.10
11321;BMP180;5715;48.234;14.320;2022-09-16T00:26:43;97955.00;;;23.10
11321;BMP180;5715;48.234;14.320;2022-09-16T00:29:31;97953.00;;;23.20
11321;BMP180;5715;48.234;14.320;2022-09-16T00:32:18;97944.00;;;22.90
11321;BMP180;5715;48.234;14.320;2022-09-16T00:35:07;97945.00;;;23.00
11321;BMP180;5715;48.234;14.320;2022-09-16T00:37:54;97944.00;;;22.90
11321;BMP180;5715;48.234;14.320;2022-09-16T00:40:48;97942.00;;;23.00
11321;BMP180;5715;48.234;14.320;2022-09-16T00:44:03;97941.00;;;22.90
11321;BMP180;5715;48.234;14.320;2022-09-16T00:46:52;97922.00;;;22.90
11321;BMP180;5715;48.234;14.320;2022-09-16T00:49:43;97938.00;;;22.50
11321;BMP180;5715;48.234;14.320;2022-09-16T00:52:32;97923.00;;;22.50
11321;BMP180;5715;48.234;14.320;2022-09-16T00:55:27;97925.00;;;22.40
11321;BMP180;5715;48.234;14.320;2022-09-16T00:58:41;97917.00;;;22.40
11321;BMP180;5715;48.234;14.320;2022-09-16T01:01:31;97921.00;;;22.30
11321;BMP180;5715;48.234;14.320;2022-09-16T01:04:28;97920.00;;;21.90
11321;BMP180;5715;48.234;14.320;2022-09-16T01:07:26;97919.00;;;21.90
11321;BMP180;5715;48.234;14.320;2022-09-16T01:10:23;97922.00;;;21.90
11321;BMP180;5715;48.234;14.320;2022-09-16T01:13:13;97921.00;;;21.60
11321;BMP180;5715;48.234;14.320;2022-09-16T01:16:33;97917.00;;;21.90
11321;BMP180;5715;48.234;14.320;2022-09-16T01:19:42;97922.00;;;21.60
11321;BMP180;5715;48.234;14.320;2022-09-16T01:26:32;97917.00;;;21.60
11321;BMP180;5715;48.234;14.320;2022-09-16T01:29:53;97921.00;;;21.50
11321;BMP180;5715;48.234;14.320;2022-09-16T01:33:47;97912.00;;;21.40
11321;BMP180;5715;48.234;14.320;2022-09-16T01:42:31;97920.00;;;21.80
11321;BMP180;5715;48.234;14.320;2022-09-16T01:45:42;97920.00;;;21.70
11321;BMP180;5715;48.234;14.320;2022-09-16T01:52:05;97913.00;;;21.80
11321;BMP180;5715;48.234;14.320;2022-09-16T01:55:23;97918.00;;;21.70
11321;BMP180;5715;48.234;14.320;2022-09-16T01:58:34;97919.00;;;21.60
11321;BMP180;5715;48.234;14.320;2022-09-16T02:01:44;97920.00;;;21.60
11321;BMP180;5715;48.234;14.320;2022-09-16T02:04:44;97912.00;;;21.60
11321;BMP180;5715;48.234;14.320;2022-09-16T02:07:39;97902.00;;;21.50
11321;BMP180;5715;48.234;14.320;2022-09-16T02:10:54;97904.00;;;21.50
11321;BMP180;5715;48.234;14.320;2022-09-16T02:13:47;97900.00;;;21.40
11321;BMP180;5715;48.234;14.320;2022-09-16T02:16:55;97897.00;;;21.50
11321;BMP180;5715;48.234;14.320;2022-09-16T02:20:08;97888.00;;;21.60
11321;BMP180;5715;48.234;14.320;2022-09-16T02:23:06;97887.00;;;21.50
11321;BMP180;5715;48.234;14.320;2022-09-16T02:25:59;97890.00;;;21.50
11321;BMP180;5715;48.234;14.320;2022-09-16T02:28:49;97885.00;;;21.40
11321;BMP180;5715;48.234;14.320;2022-09-16T02:31:42;97885.00;;;21.30
11321;BMP180;5715;48.234;14.320;2022-09-16T02:34:44;97894.00;;;21.30
11321;BMP180;5715;48.234;14.320;2022-09-16T02:37:46;97885.00;;;21.30
11321;BMP180;5715;48.234;14.320;2022-09-16T02:40:42;97885.00;;;21.30
11321;BMP180;5715;48.234;14.320;2022-09-16T02:43:31;97880.00;;;21.10
11321;BMP180;5715;48.234;14.320;2022-09-16T02:46:41;97884.00;;;20.90
11321;BMP180;5715;48.234;14.320;2022-09-16T02:49:58;97873.00;;;20.80
11321;BMP180;5715;48.234;14.320;2022-09-16T02:53:01;97882.00;;;20.90
11321;BMP180;5715;48.234;14.320;2022-09-16T02:56:01;97877.00;;;20.90
11321;BMP180;5715;48.234;14.320;2022-09-16T02:58:49;97868.00;;;21.00
11321;BMP180;5715;48.234;14.320;2022-09-16T03:01:44;97865.00;;;21.10
11321;BMP180;5715;48.234;14.320;2022-09-16T03:04:34;97862.00;;;20.80
11321;BMP180;5715;48.234;14.320;2022-09-16T03:07:22;97868.00;;;20.90
11321;BMP180;5715;48.234;14.320;2022-09-16T03:10:12;97867.00;;;20.90
11321;BMP180;5715;48.234;14.320;2022-09-16T03:13:34;97867.00;;;20.60
11321;BMP180;5715;48.234;14.320;2022-09-16T03:23:23;97857.00;;;20.80
11321;BMP180;5715;48.234;14.320;2022-09-16T03:29:56;97851.00;;;20.40
11321;BMP180;5715;48.234;14.320;2022-09-16T03:33:09;97849.00;;;20.50
11321;BMP180;5715;48.234;14.320;2022-09-16T03:36:06;97857.00;;;20.50
11321;BMP180;5715;48.234;14.320;2022-09-16T03:38:57;97847.00;;;20.50
11321;BMP180;5715;48.234;14.320;2022-09-16T03:41:45;97845.00;;;20.50
11321;BMP180;5715;48.234;14.320;2022-09-16T03:44:36;97848.00;;;20.50
11321;BMP180;5715;48.234;14.320;2022-09-16T03:47:24;97846.00;;;20.60
11321;BMP180;5715;48.234;14.320;2022-09-16T03:50:11;97842.00;;;20.50
11321;BMP180;5715;48.234;14.320;2022-09-16T03:53:00;97844.00;;;20.60
11321;BMP180;5715;48.234;14.320;2022-09-16T03:55:48;97837.00;;;20.50
11321;BMP180;5715;48.234;14.320;2022-09-16T03:58:36;97835.00;;;20.60
11321;BMP180;5715;48.234;14.320;2022-09-16T04:01:24;97831.00;;;20.70
11321;BMP180;5715;48.234;14.320;2022-09-16T04:04:11;97814.00;;;20.90
11321;BMP180;5715;48.234;14.320;2022-09-16T04:06:59;97808.00;;;21.00
11321;BMP180;5715;48.234;14.320;2022-09-16T04:09:46;97811.00;;;21.00
11321;BMP180;5715;48.234;14.320;2022-09-16T04:12:34;97811.00;;;20.90
11321;BMP180;5715;48.234;14.320;2022-09-16T04:15:22;97810.00;;;20.90
11321;BMP180;5715;48.234;14.320;2022-09-16T04:18:09;97824.00;;;21.10
11321;BMP180;5715;48.234;14.320;2022-09-16T04:20:59;97828.00;;;21.20
11321;BMP180;5715;48.234;14.320;2022-09-16T04:23:47;97829.00;;;20.80
11321;BMP180;5715;48.234;14.320;2022-09-16T04:26:35;97820.00;;;21.00
11321;BMP180;5715;48.234;14.320;2022-09-16T04:29:23;97822.00;;;20.90
11321;BMP180;5715;48.234;14.320;2022-09-16T04:32:10;97829.00;;;20.90
11321;BMP180;5715;48.234;14.320;2022-09-16T04:34:57;97829.00;;;20.90
11321;BMP180;5715;48.234;14.320;2022-09-16T04:37:45;97826.00;;;20.90
11321;BMP180;5715;48.234;14.320;2022-09-16T04:40:33;97827.00;;;21.00
11321;BMP180;5715;48.234;14.320;2022-09-16T04:43:20;97822.00;;;21.00
11321;BMP180;5715;48.234;14.320;2022-09-16T04:46:08;97829.00;;;21.00
11321;BMP180;5715;48.234;14.320;2022-09-16T04:48:58;97828.00;;;21.00
11321;BMP180;5715;48.234;14.320;2022-09-16T04:51:46;97833.00;;;21.10
11321;BMP180;5715;48.234;14.320;2022-09-16T04:54:33;97828.00;;;21.00
11321;BMP180;5715;48.234;14.320;2022-09-16T04:57:21;97842.00;;;21.00
11321;BMP180;5715;48.234;14.320;2022-09-16T05:00:10;97841.00;;;21.00
11321;BMP180;5715;48.234;14.320;2022-09-16T05:02:57;97837.00;;;21.00
11321;BMP180;5715;48.234;14.320;2022-09-16T05:05:45;97838.00;;;21.10
11321;BMP180;5715;48.234;14.320;2022-09-16T05:08:33;97841.00;;;21.10
11321;BMP180;5715;48.234;14.320;2022-09-16T05:11:25;97834.00;;;21.00
11321;BMP180;5715;48.234;14.320;2022-09-16T05:14:16;97844.00;;;21.00
11321;BMP180;5715;48.234;14.320;2022-09-16T05:17:04;97851.00;;;21.00
11321;BMP180;5715;48.234;14.320;2022-09-16T05:19:51;97855.00;;;21.10
11321;BMP180;5715;48.234;14.320;2022-09-16T05:22:39;97857.00;;;21.20
11321;BMP180;5715;48.234;14.320;2022-09-16T05:25:26;97847.00;;;21.20
11321;BMP180;5715;48.234;14.320;2022-09-16T05:28:14;97851.00;;;21.20
11321;BMP180;5715;48.234;14.320;2022-09-16T05:31:14;97855.00;;;21.50
11321;BMP180;5715;48.234;14.320;2022-09-16T05:34:19;97854.00;;;21.60
11321;BMP180;5715;48.234;14.320;2022-09-16T05:37:07;97855.00;;;21.70
11321;BMP180;5715;48.234;14.320;2022-09-16T05:39:55;97855.00;;;21.60
11321;BMP180;5715;48.234;14.320;2022-09-16T05:42:43;97850.00;;;21.70
11321;BMP180;5715;48.234;14.320;2022-09-16T05:45:30;97844.00;;;21.70
11321;BMP180;5715;48.234;14.320;2022-09-16T05:48:19;97839.00;;;21.80
11321;BMP180;5715;48.234;14.320;2022-09-16T05:51:07;97836.00;;;22.00
11321;BMP180;5715;48.234;14.320;2022-09-16T05:53:54;97832.00;;;21.80
11321;BMP180;5715;48.234;14.320;2022-09-16T05:56:42;97829.00;;;21.70
11321;BMP180;5715;48.234;14.320;2022-09-16T05:59:30;97826.00;;;21.90
11321;BMP180;5715;48.234;14.320;2022-09-16T06:02:17;97820.00;;;22.10
11321;BMP180;5715;48.234;14.320;2022-09-16T06:05:05;97828.00;;;22.00
11321;BMP180;5715;48.234;14.320;2022-09-16T06:07:56;97830.00;;;22.10
11321;BMP180;5715;48.234;14.320;2022-09-16T06:10:43;97829.00;;;22.30
11321;BMP180;5715;48.234;14.320;2022-09-16T06:13:31;97827.00;;;22.20
11321;BMP180;5715;48.234;14.320;2022-09-16T06:16:18;97830.00;;;22.50
11321;BMP180;5715;48.234;14.320;2022-09-16T06:19:10;97825.00;;;22.50
11321;BMP180;5715;48.234;14.320;2022-09-16T06:21:59;97824.00;;;22.50
11321;BMP180;5715;48.234;14.320;2022-09-16T06:24:47;97816.00;;;22.50
11321;BMP180;5715;48.234;14.320;2022-09-16T06:27:34;97814.00;;;22.70
11321;BMP180;5715;48.234;14.320;2022-09-16T06:30:22;97818.00;;;22.70
11321;BMP180;5715;48.234;14.320;2022-09-16T06:33:13;97828.00;;;22.50
11321;BMP180;5715;48.234;14.320;2022-09-16T06:36:05;97827.00;;;22.90
11321;BMP180;5715;48.234;14.320;2022-09-16T06:38:53;97821.00;;;22.90
11321;BMP180;5715;48.234;14.320;2022-09-16T06:41:41;97826.00;;;23.50
11321;BMP180;5715;48.234;14.320;2022-09-16T06:44:28;97830.00;;;23.40
11321;BMP180;5715;48.234;14.320;2022-09-16T06:47:16;97829.00;;;23.40
11321;BMP180;5715;48.234;14.320;2022-09-16T06:50:04;97830.00;;;23.30
11321;BMP180;5715;48.234;14.320;2022-09-16T06:52:52;97836.00;;;23.50
11321;BMP180;5715;48.234;14.320;2022-09-16T06:55:39;97832.00;;;23.50
11321;BMP180;5715;48.234;14.320;2022-09-16T06:58:31;97836.00;;;23.20
11321;BMP180;5715;48.234;14.320;2022-09-16T07:01:22;97837.00;;;23.30
11321;BMP180;5715;48.234;14.320;2022-09-16T07:04:11;97836.00;;;23.20
11321;BMP180;5715;48.234;14.320;2022-09-16T07:06:59;97834.00;;;23.30
11321;BMP180;5715;48.234;14.320;2022-09-16T07:09:56;97840.00;;;23.40
11321;BMP180;5715;48.234;14.320;2022-09-16T07:12:44;97837.00;;;23.30
11321;BMP180;5715;48.234;14.320;2022-09-16T07:15:32;97840.00;;;23.40
11321;BMP180;5715;48.234;14.320;2022-09-16T07:18:20;97840.00;;;23.80
11321;BMP180;5715;48.234;14.320;2022-09-16T07:24:02;97839.00;;;23.70
11321;BMP180;5715;48.234;14.320;2022-09-16T07:26:50;97853.00;;;23.50
11321;BMP180;5715;48.234;14.320;2022-09-16T07:29:37;97847.00;;;23.50
11321;BMP180;5715;48.234;14.320;2022-09-16T07:32:25;97846.00;;;23.30
11321;BMP180;5715;48.234;14.320;2022-09-16T07:35:12;97840.00;;;23.40
11321;BMP180;5715;48.234;14.320;2022-09-16T07:38:00;97844.00;;;23.30
11321;BMP180;5715;48.234;14.320;2022-09-16T07:40:48;97857.00;;;23.40
11321;BMP180;5715;48.234;14.320;2022-09-16T07:43:37;97847.00;;;23.50
11321;BMP180;5715;48.234;14.320;2022-09-16T07:46:28;97848.00;;;23.60
11321;BMP180;5715;48.234;14.320;2022-09-16T07:49:16;97852.00;;;23.70
11321;BMP180;5715;48.234;14.320;2022-09-16T07:52:03;97857.00;;;23.80
11321;BMP180;5715;48.234;14.320;2022-09-16T07:54:51;97860.00;;;23.80
11321;BMP180;5715;48.234;14.320;2022-09-16T07:57:39;97864.00;;;23.70
11321;BMP180;5715;48.234;14.320;2022-09-16T08:00:26;97860.00;;;23.90
11321;BMP180;5715;48.234;14.320;2022-09-16T08:03:14;97862.00;;;24.10
11321;BMP180;5715;48.234;14.320;2022-09-16T08:06:06;97860.00;;;24.00
11321;BMP180;5715;48.234;14.320;2022-09-16T08:08:57;97850.00;;;23.80
11321;BMP180;5715;48.234;14.320;2022-09-16T08:12:06;97858.00;;;23.80
11321;BMP180;5715;48.234;14.320;2022-09-16T08:14:59;97854.00;;;23.80
11321;BMP180;5715;48.234;14.320;2022-09-16T08:17:47;97855.00;;;23.70
11321;BMP180;5715;48.234;14.320;2022-09-16T08:20:36;97853.00;;;23.70
11321;BMP180;5715;48.234;14.320;2022-09-16T08:23:23;97854.00;;;23.70
11321;BMP180;5715;48.234;14.320;2022-09-16T08:26:13;97862.00;;;23.70
11321;BMP180;5715;48.234;14.320;2022-09-16T08:29:01;97865.00;;;23.60
11321;BMP180;5715;48.234;14.320;2022-09-16T08:31:55;97871.00;;;23.70
11321;BMP180;5715;48.234;14.320;2022-09-16T08:34:42;97869.00;;;23.60
11321;BMP180;5715;48.234;14.320;2022-09-16T08:37:30;97860.00;;;23.50
11321;BMP180;5715;48.234;14.320;2022-09-16T08:40:22;97857.00;;;23.60
11321;BMP180;5715;48.234;14.320;2022-09-16T08:44:19;97867.00;;;23.90
11321;BMP180;5715;48.234;14.320;2022-09-16T08:47:01;97869.00;;;23.80
11321;BMP180;5715;48.234;14.320;2022-09-16T08:49:49;97870.00;;;24.10
11321;BMP180;5715;48.234;14.320;2022-09-16T08:52:41;97871.00;;;24.30
11321;BMP180;5715;48.234;14.320;2022-09-16T08:55:44;97873.00;;;24.30
11321;BMP180;5715;48.234;14.320;2022-09-16T08:58:50;97868.00;;;24.50
11321;BMP180;5715;48.234;14.320;2022-09-16T09:05:42;97866.00;;;25.00
11321;BMP180;5715;48.234;14.320;2022-09-16T09:08:52;97862.00;;;25.00
11321;BMP180;5715;48.234;14.320;2022-09-16T09:25:07;97851.00;;;24.20
11321;BMP180;5715;48.234;14.320;2022-09-16T09:31:45;97857.00;;;24.50
11321;BMP180;5715;48.234;14.320;2022-09-16T09:35:07;97847.00;;;24.50
11321;BMP180;5715;48.234;14.320;2022-09-16T09:41:54;97844.00;;;24.40
11321;BMP180;5715;48.234;14.320;2022-09-16T09:44:53;97836.00;;;24.50
11321;BMP180;5715;48.234;14.320;2022-09-16T09:47:56;97836.00;;;24.80
11321;BMP180;5715;48.234;14.320;2022-09-16T09:50:47;97838.00;;;24.80
11321;BMP180;5715;48.234;14.320;2022-09-16T09:53:46;97840.00;;;25.00
11321;BMP180;5715;48.234;14.320;2022-09-16T09:56:44;97832.00;;;25.00
11321;BMP180;5715;48.234;14.320;2022-09-16T09:59:44;97835.00;;;25.20
11321;BMP180;5715;48.234;14.320;2022-09-16T10:02:39;97828.00;;;25.40
11321;BMP180;5715;48.234;14.320;2022-09-16T10:05:31;97835.00;;;25.60
11321;BMP180;5715;48.234;14.320;2022-09-16T10:08:49;97833.00;;;25.80
11321;BMP180;5715;48.234;14.320;2022-09-16T10:11:52;97831.00;;;25.20
11321;BMP180;5715;48.234;14.320;2022-09-16T10:14:45;97819.00;;;25.60
11321;BMP180;5715;48.234;14.320;2022-09-16T10:17:33;97819.00;;;25.50
11321;BMP180;5715;48.234;14.320;2022-09-16T10:21:13;97814.00;;;25.60
11321;BMP180;5715;48.234;14.320;2022-09-16T10:24:02;97810.00;;;25.80
11321;BMP180;5715;48.234;14.320;2022-09-16T10:26:49;97813.00;;;25.90
11321;BMP180;5715;48.234;14.320;2022-09-16T10:29:37;97815.00;;;25.50
11321;BMP180;5715;48.234;14.320;2022-09-16T10:32:24;97819.00;;;25.50
11321;BMP180;5715;48.234;14.320;2022-09-16T10:35:37;97819.00;;;25.60
11321;BMP180;5715;48.234;14.320;2022-09-16T10:38:54;97804.00;;;25.80
11321;BMP180;5715;48.234;14.320;2022-09-16T10:41:50;97800.00;;;25.90
11321;BMP180;5715;48.234;14.320;2022-09-16T10:44:38;97796.00;;;25.50
11321;BMP180;5715;48.234;14.320;2022-09-16T10:47:30;97805.00;;;25.40
11321;BMP180;5715;48.234;14.320;2022-09-16T10:50:20;97800.00;;;25.60
11321;BMP180;5715;48.234;14.320;2022-09-16T10:53:49;97803.00;;;25.90
11321;BMP180;5715;48.234;14.320;2022-09-16T10:56:50;97799.00;;;25.70
11321;BMP180;5715;48.234;14.320;2022-09-16T10:59:39;97780.00;;;26.10
11321;BMP180;5715;48.234;14.320;2022-09-16T11:09:01;97789.00;;;26.20
11321;BMP180;5715;48.234;14.320;2022-09-16T11:18:29;97790.00;;;26.20
11321;BMP180;5715;48.234;14.320;2022-09-16T11:24:42;97780.00;;;26.10
11321;BMP180;5715;48.234;14.320;2022-09-16T11:28:06;97783.00;;;25.80
11321;BMP180;5715;48.234;14.320;2022-09-16T11:34:05;97788.00;;;26.40
11321;BMP180;5715;48.234;14.320;2022-09-16T11:37:39;97783.00;;;26.20
11321;BMP180;5715;48.234;14.320;2022-09-16T11:41:04;97785.00;;;26.30
11321;BMP180;5715;48.234;14.320;2022-09-16T11:56:56;97768.00;;;25.60
11321;BMP180;5715;48.234;14.320;2022-09-16T12:00:04;97756.00;;;25.40
11321;BMP180;5715;48.234;14.320;2022-09-16T12:03:46;97760.00;;;25.50
11321;BMP180;5715;48.234;14.320;2022-09-16T12:06:51;97753.00;;;25.80
11321;BMP180;5715;48.234;14.320;2022-09-16T12:09:52;97751.00;;;25.80
11321;BMP180;5715;48.234;14.320;2022-09-16T12:12:58;97749.00;;;25.90
11321;BMP180;5715;48.234;14.320;2022-09-16T12:15:56;97750.00;;;26.10
11321;BMP180;5715;48.234;14.320;2022-09-16T12:18:53;97742.00;;;26.50
11321;BMP180;5715;48.234;14.320;2022-09-16T12:22:09;97741.00;;;26.80
11321;BMP180;5715;48.234;14.320;2022-09-16T12:25:13;97731.00;;;26.90
11321;BMP180;5715;48.234;14.320;2022-09-16T12:28:16;97728.00;;;26.70
11321;BMP180;5715;48.234;14.320;2022-09-16T12:34:43;97731.00;;;26.60
11321;BMP180;5715;48.234;14.320;2022-09-16T12:37:50;97724.00;;;26.60
11321;BMP180;5715;48.234;14.320;2022-09-16T12:48:07;97714.00;;;26.30
11321;BMP180;5715;48.234;14.320;2022-09-16T12:51:30;97705.00;;;26.10
11321;BMP180;5715;48.234;14.320;2022-09-16T13:01:26;97707.00;;;25.70
11321;BMP180;5715;48.234;14.320;2022-09-16T13:04:39;97711.00;;;25.50
11321;BMP180;5715;48.234;14.320;2022-09-16T13:07:33;97710.00;;;25.20
11321;BMP180;5715;48.234;14.320;2022-09-16T13:13:49;97710.00;;;24.80
11321;BMP180;5715;48.234;14.320;2022-09-16T13:16:37;97708.00;;;25.00
11321;BMP180;5715;48.234;14.320;2022-09-16T13:20:01;97708.00;;;24.70
11321;BMP180;5715;48.234;14.320;2022-09-16T13:23:19;97703.00;;;24.50
11321;BMP180;5715;48.234;14.320;2022-09-16T13:26:10;97703.00;;;24.40
11321;BMP180;5715;48.234;14.320;2022-09-16T13:28:57;97692.00;;;24.40
11321;BMP180;5715;48.234;14.320;2022-09-16T13:31:48;97696.00;;;24.10
11321;BMP180;5715;48.234;14.320;2022-09-16T13:34:36;97695.00;;;24.20
11321;BMP180;5715;48.234;14.320;2022-09-16T13:37:27;97695.00;;;24.60
11321;BMP180;5715;48.234;14.320;2022-09-16T13:40:29;97688.00;;;24.50
11321;BMP180;5715;48.234;14.320;2022-09-16T13:43:30;97698.00;;;24.20
11321;BMP180;5715;48.234;14.320;2022-09-16T13:46:31;97705.00;;;23.90
11321;BMP180;5715;48.234;14.320;2022-09-16T13:49:24;97701.00;;;24.20
11321;BMP180;5715;48.234;14.320;2022-09-16T13:52:34;97705.00;;;24.20
11321;BMP180;5715;48.234;14.320;2022-09-16T13:55:25;97710.00;;;24.00
11321;BMP180;5715;48.234;14.320;2022-09-16T14:11:35;97706.00;;;23.80
11321;BMP180;5715;48.234;14.320;2022-09-16T14:14:27;97690.00;;;23.50
11321;BMP180;5715;48.234;14.320;2022-09-16T14:17:48;97682.00;;;23.70
11321;BMP180;5715;48.234;14.320;2022-09-16T14:21:02;97693.00;;;24.10
11321;BMP180;5715;48.234;14.320;2022-09-16T14:23:47;97702.00;;;23.80
11321;BMP180;5715;48.234;14.320;2022-09-16T14:26:35;97712.00;;;23.50
11321;BMP180;5715;48.234;14.320;2022-09-16T14:29:24;97698.00;;;23.30
11321;BMP180;5715;48.234;14.320;2022-09-16T14:32:14;97696.00;;;23.40
11321;BMP180;5715;48.234;14.320;2022-09-16T14:35:23;97706.00;;;23.50
11321;BMP180;5715;48.234;14.320;2022-09-16T14:38:17;97709.00;;;23.00
11321;BMP180;5715;48.234;14.320;2022-09-16T14:41:40;97720.00;;;23.10
11321;BMP180;5715;48.234;14.320;2022-09-16T14:44:38;97733.00;;;23.20
11321;BMP180;5715;48.234;14.320;2022-09-16T14:47:35;97725.00;;;22.90
11321;BMP180;5715;48.234;14.320;2022-09-16T14:50:43;97733.00;;;22.70
11321;BMP180;5715;48.234;14.320;2022-09-16T14:53:33;97735.00;;;22.80
11321;BMP180;5715;48.234;14.320;2022-09-16T14:56:25;97732.00;;;23.00
11321;BMP180;5715;48.234;14.320;2022-09-16T14:59:14;97755.00;;;23.00
11321;BMP180;5715;48.234;14.320;2022-09-16T15:09:02;97761.00;;;22.70
11321;BMP180;5715;48.234;14.320;2022-09-16T15:11:56;97767.00;;;22.70
11321;BMP180;5715;48.234;14.320;2022-09-16T15:14:45;97765.00;;;22.40
11321;BMP180;5715;48.234;14.320;2022-09-16T15:17:33;97771.00;;;22.50
11321;BMP180;5715;48.234;14.320;2022-09-16T15:20:24;97773.00;;;22.30
11321;BMP180;5715;48.234;14.320;2022-09-16T15:23:25;97748.00;;;22.30
11321;BMP180;5715;48.234;14.320;2022-09-16T15:26:28;97757.00;;;22.00
11321;BMP180;5715;48.234;14.320;2022-09-16T15:32:19;97765.00;;;22.00
11321;BMP180;5715;48.234;14.320;2022-09-16T15:35:20;97773.00;;;22.30
11321;BMP180;5715;48.234;14.320;2022-09-16T15:38:11;97777.00;;;21.90
11321;BMP180;5715;48.234;14.320;2022-09-16T15:41:12;97783.00;;;22.30
11321;BMP180;5715;48.234;14.320;2022-09-16T15:44:00;97789.00;;;22.10
11321;BMP180;5715;48.234;14.320;2022-09-16T15:46:48;97788.00;;;22.10
11321;BMP180;5715;48.234;14.320;2022-09-16T15:49:39;97809.00;;;22.00
11321;BMP180;5715;48.234;14.320;2022-09-16T15:52:26;97802.00;;;22.10
11321;BMP180;5715;48.234;14.320;2022-09-16T15:58:43;97798.00;;;22.00
11321;BMP180;5715;48.234;14.320;2022-09-16T16:01:52;97796.00;;;21.90
11321;BMP180;5715;48.234;14.320;2022-09-16T16:04:41;97796.00;;;22.00
11321;BMP180;5715;48.234;14.320;2022-09-16T16:07:49;97802.00;;;21.40
11321;BMP180;5715;48.234;14.320;2022-09-16T16:10:37;97791.00;;;21.40
11321;BMP180;5715;48.234;14.320;2022-09-16T16:13:26;97797.00;;;21.50
11321;BMP180;5715;48.234;14.320;2022-09-16T16:16:16;97800.00;;;21.60
11321;BMP180;5715;48.234;14.320;2022-09-16T16:19:04;97805.00;;;21.30
11321;BMP180;5715;48.234;14.320;2022-09-16T16:21:55;97815.00;;;21.60
11321;BMP180;5715;48.234;14.320;2022-09-16T16:24:43;97823.00;;;21.50
11321;BMP180;5715;48.234;14.320;2022-09-16T16:27:32;97826.00;;;21.40
11321;BMP180;5715;48.234;14.320;2022-09-16T16:30:20;97825.00;;;21.30
11321;BMP180;5715;48.234;14.320;2022-09-16T16:33:07;97843.00;;;21.30
11321;BMP180;5715;48.234;14.320;2022-09-16T16:35:55;97861.00;;;20.90
11321;BMP180;5715;48.234;14.320;2022-09-16T16:38:43;97862.00;;;20.80
11321;BMP180;5715;48.234;14.320;2022-09-16T16:41:32;97858.00;;;20.70
11321;BMP180;5715;48.234;14.320;2022-09-16T16:44:22;97866.00;;;20.90
11321;BMP180;5715;48.234;14.320;2022-09-16T16:47:10;97863.00;;;20.40
11321;BMP180;5715;48.234;14.320;2022-09-16T16:49:57;97870.00;;;20.30
11321;BMP180;5715;48.234;14.320;2022-09-16T16:52:49;97860.00;;;20.60
11321;BMP180;5715;48.234;14.320;2022-09-16T16:55:39;97877.00;;;20.40
11321;BMP180;5715;48.234;14.320;2022-09-16T16:58:30;97872.00;;;20.50
11321;BMP180;5715;48.234;14.320;2022-09-16T17:01:19;97870.00;;;20.20
11321;BMP180;5715;48.234;14.320;2022-09-16T17:04:07;97868.00;;;20.20
11321;BMP180;5715;48.234;14.320;2022-09-16T17:06:55;97878.00;;;20.00
11321;BMP180;5715;48.234;14.320;2022-09-16T17:10:04;97884.00;;;20.30
11321;BMP180;5715;48.234;14.320;2022-09-16T17:12:51;97880.00;;;19.90
11321;BMP180;5715;48.234;14.320;2022-09-16T17:15:39;97872.00;;;20.10
11321;BMP180;5715;48.234;14.320;2022-09-16T17:18:27;97869.00;;;20.00
11321;BMP180;5715;48.234;14.320;2022-09-16T17:21:19;97864.00;;;20.00
11321;BMP180;5715;48.234;14.320;2022-09-16T17:24:07;97874.00;;;20.30
11321;BMP180;5715;48.234;14.320;2022-09-16T17:26:58;97858.00;;;20.30
11321;BMP180;5715;48.234;14.320;2022-09-16T17:29:46;97870.00;;;19.80
11321;BMP180;5715;48.234;14.320;2022-09-16T17:32:34;97879.00;;;20.10
11321;BMP180;5715;48.234;14.320;2022-09-16T17:35:21;97881.00;;;20.10
11321;BMP180;5715;48.234;14.320;2022-09-16T17:38:09;97879.00;;;20.30
11321;BMP180;5715;48.234;14.320;2022-09-16T17:43:54;97887.00;;;20.20
11321;BMP180;5715;48.234;14.320;2022-09-16T17:46:43;97891.00;;;19.80
11321;BMP180;5715;48.234;14.320;2022-09-16T17:49:31;97905.00;;;20.30
11321;BMP180;5715;48.234;14.320;2022-09-16T17:52:19;97899.00;;;20.40
11321;BMP180;5715;48.234;14.320;2022-09-16T17:55:07;97903.00;;;20.00
11321;BMP180;5715;48.234;14.320;2022-09-16T17:57:54;97909.00;;;19.60
11321;BMP180;5715;48.234;14.320;2022-09-16T18:00:43;97912.00;;;20.10
11321;BMP180;5715;48.234;14.320;2022-09-16T18:03:30;97918.00;;;20.00
11321;BMP180;5715;48.234;14.320;2022-09-16T18:06:26;97924.00;;;19.70
11321;BMP180;5715;48.234;14.320;2022-09-16T18:09:14;97927.00;;;20.00
11321;BMP180;5715;48.234;14.320;2022-09-16T18:12:02;97925.00;;;19.90
11321;BMP180;5715;48.234;14.320;2022-09-16T18:14:50;97924.00;;;19.90
11321;BMP180;5715;48.234;14.320;2022-09-16T18:17:38;97927.00;;;19.80
11321;BMP180;5715;48.234;14.320;2022-09-16T18:20:25;97933.00;;;19.80
11321;BMP180;5715;48.234;14.320;2022-09-16T18:23:13;97928.00;;;19.90
11321;BMP180;5715;48.234;14.320;2022-09-16T18:26:19;97938.00;;;20.10
11321;BMP180;5715;48.234;14.320;2022-09-16T18:29:10;97936.00;;;20.10
11321;BMP180;5715;48.234;14.320;2022-09-16T18:31:59;97951.00;;;20.00
11321;BMP180;5715;48.234;14.320;2022-09-16T18:34:46;97959.00;;;19.90
11321;BMP180;5715;48.234;14.320;2022-09-16T18:37:34;97959.00;;;19.90
11321;BMP180;5715;48.234;14.320;2022-09-16T18:40:21;97967.00;;;20.20
11321;BMP180;5715;48.234;14.320;2022-09-16T18:43:09;97961.00;;;20.00
11321;BMP180;5715;48.234;14.320;2022-09-16T18:46:17;97964.00;;;20.20
11321;BMP180;5715;48.234;14.320;2022-09-16T18:49:14;97957.00;;;20.00
11321;BMP180;5715;48.234;14.320;2022-09-16T18:52:02;97956.00;;;20.00
11321;BMP180;5715;48.234;14.320;2022-09-16T18:54:50;97963.00;;;19.90
11321;BMP180;5715;48.234;14.320;2022-09-16T18:57:37;97956.00;;;19.80
11321;BMP180;5715;48.234;14.320;2022-09-16T19:00:25;97952.00;;;19.90